CBAPRS
Automatic Packet Reporting System for everyone...
Symbol
PositionLatitude: 51.853°
Longitude: 14.4071666667°
Speed0km/h
Course
AltitudeN/A
Comment11m CH 15 USB
Status
Path13HN318>APWW10 via ,TCPIP*,qAC,EIFEL-CB
Last heardSun, 24 Feb 2019 03:37:29 +0000

Time is in UTC

  • Sun, 24 Feb 2019 22:40:43 +0000: 13HN318>APWW10,,TCPIP*,qAC,EIFEL-CB:@234043h5151.18N/01424.43Ey11m CH 15 USB
  • Sun, 24 Feb 2019 22:10:43 +0000: 13HN318>APWW10,,TCPIP*,qAC,EIFEL-CB:@231043h5151.18N/01424.43Ey11m CH 15 USB
  • Sun, 24 Feb 2019 03:37:29 +0000: 13HN318>APWW10,,TCPIP*,qAC,EIFEL-CB:@043729h5151.18N/01424.43Ey11m CH 15 USB
  • Sun, 24 Feb 2019 03:07:29 +0000: 13HN318>APWW10,,TCPIP*,qAC,EIFEL-CB:@040729h5151.18N/01424.43Ey11m CH 15 USB
  • Sun, 24 Feb 2019 02:37:29 +0000: 13HN318>APWW10,,TCPIP*,qAC,EIFEL-CB:@033729h5151.18N/01424.43Ey11m CH 15 USB
  • Sun, 24 Feb 2019 02:07:29 +0000: 13HN318>APWW10,,TCPIP*,qAC,EIFEL-CB:@030729h5151.18N/01424.43Ey11m CH 15 USB
  • Sun, 24 Feb 2019 01:37:29 +0000: 13HN318>APWW10,,TCPIP*,qAC,EIFEL-CB:@023729h5151.18N/01424.43Ey11m CH 15 USB
  • Sun, 24 Feb 2019 01:20:00 +0000: 13HN318>APWW10,,TCPIP*,qAC,EIFEL-CB:@022000h5151.18N/01424.43Ey11m CH 15 USB
  • Sun, 24 Feb 2019 00:49:59 +0000: 13HN318>APWW10,,TCPIP*,qAC,EIFEL-CB:@014959h5151.18N/01424.43Ey11m CH 15 USB
  • Sat, 23 Feb 2019 22:21:35 +0000: 13HN318>APWW10,,TCPIP*,qAC,EIFEL-CB:@232135h5151.18N/01424.43Ey11m CH 15 USB
  • Sat, 23 Feb 2019 21:40:43 +0000: 13HN318>APWW10,,TCPIP*,qAC,EIFEL-CB:@224043h5151.18N/01424.43Ey11m CH 15 USB
  • Sat, 23 Feb 2019 21:10:43 +0000: 13HN318>APWW10,,TCPIP*,qAC,EIFEL-CB:@221043h5151.18N/01424.43Ey11m CH 15 USB
  • Sat, 23 Feb 2019 20:40:42 +0000: 13HN318>APWW10,,TCPIP*,qAC,EIFEL-CB:@214042h5151.18N/01424.43Ey11m CH 15 USB
  • Sat, 23 Feb 2019 20:10:42 +0000: 13HN318>APWW10,,TCPIP*,qAC,EIFEL-CB:@211042h5151.18N/01424.43Ey11m CH 15 USB
  • Sat, 23 Feb 2019 19:40:42 +0000: 13HN318>APWW10,,TCPIP*,qAC,EIFEL-CB:@204042h5151.18N/01424.43Ey11m CH 15 USB
  • Sat, 23 Feb 2019 19:10:42 +0000: 13HN318>APWW10,,TCPIP*,qAC,EIFEL-CB:@201042h5151.18N/01424.43Ey11m CH 15 USB
  • Sat, 23 Feb 2019 18:40:42 +0000: 13HN318>APWW10,,TCPIP*,qAC,EIFEL-CB:@194042h5151.18N/01424.43Ey11m CH 15 USB
  • Sat, 23 Feb 2019 18:10:42 +0000: 13HN318>APWW10,,TCPIP*,qAC,EIFEL-CB:@191042h5151.18N/01424.43Ey11m CH 15 USB
  • Sat, 23 Feb 2019 17:40:42 +0000: 13HN318>APWW10,,TCPIP*,qAC,EIFEL-CB:@184042h5151.18N/01424.43Ey11m CH 15 USB
  • Sat, 23 Feb 2019 17:10:42 +0000: 13HN318>APWW10,,TCPIP*,qAC,EIFEL-CB:@181042h5151.18N/01424.43Ey11m CH 15 USB
  • Sat, 23 Feb 2019 16:40:42 +0000: 13HN318>APWW10,,TCPIP*,qAC,EIFEL-CB:@174042h5151.18N/01424.43Ey11m CH 15 USB
  • Sat, 23 Feb 2019 16:10:41 +0000: 13HN318>APWW10,,TCPIP*,qAC,EIFEL-CB:@171041h5151.18N/01424.43Ey11m CH 15 USB
  • Sat, 23 Feb 2019 15:40:41 +0000: 13HN318>APWW10,,TCPIP*,qAC,EIFEL-CB:@164041h5151.18N/01424.43Ey11m CH 15 USB
  • Sat, 23 Feb 2019 15:10:41 +0000: 13HN318>APWW10,,TCPIP*,qAC,EIFEL-CB:@161041h5151.18N/01424.43Ey11m CH 15 USB
  • Sat, 23 Feb 2019 14:40:41 +0000: 13HN318>APWW10,,TCPIP*,qAC,EIFEL-CB:@154041h5151.18N/01424.43Ey11m CH 15 USB
  • Sat, 23 Feb 2019 14:10:41 +0000: 13HN318>APWW10,,TCPIP*,qAC,EIFEL-CB:@151041h5151.18N/01424.43Ey11m CH 15 USB
  • Sat, 23 Feb 2019 13:40:41 +0000: 13HN318>APWW10,,TCPIP*,qAC,EIFEL-CB:@144041h5151.18N/01424.43Ey11m CH 15 USB
  • Sat, 23 Feb 2019 13:10:41 +0000: 13HN318>APWW10,,TCPIP*,qAC,EIFEL-CB:@141041h5151.18N/01424.43Ey11m CH 15 USB
  • Sat, 23 Feb 2019 12:40:41 +0000: 13HN318>APWW10,,TCPIP*,qAC,EIFEL-CB:@134041h5151.18N/01424.43Ey11m CH 15 USB
  • Sat, 23 Feb 2019 12:10:41 +0000: 13HN318>APWW10,,TCPIP*,qAC,EIFEL-CB:@131041h5151.18N/01424.43Ey11m CH 15 USB
  • Sat, 23 Feb 2019 11:55:03 +0000: 13HN318>APWW10,,TCPIP*,qAC,EIFEL-CB:@125503h5151.18N/01424.43Ey11m CH 15 USB
  • Sat, 23 Feb 2019 11:54:42 +0000: 13HN318>APWW10,,TCPIP*,qAC,EIFEL-CB:@125442h5151.18N/01424.43Ey11m CH 15 USB
  • Sat, 23 Feb 2019 10:08:34 +0000: 13HN318>APWW10,,TCPIP*,qAC,EIFEL-CB:@110834h5151.18N/01424.43Ey11m CH 15 USB
  • Sat, 23 Feb 2019 09:38:34 +0000: 13HN318>APWW10,,TCPIP*,qAC,EIFEL-CB:@103834h5151.18N/01424.43Ey11m CH 15 USB
  • Sat, 23 Feb 2019 09:08:34 +0000: 13HN318>APWW10,,TCPIP*,qAC,EIFEL-CB:@100834h5151.18N/01424.43Ey11m CH 15 USB
  • Sat, 23 Feb 2019 08:38:34 +0000: 13HN318>APWW10,,TCPIP*,qAC,EIFEL-CB:@093834h5151.18N/01424.43Ey11m CH 15 USB
  • Sat, 23 Feb 2019 08:08:34 +0000: 13HN318>APWW10,,TCPIP*,qAC,EIFEL-CB:@090834h5151.18N/01424.43Ey11m CH 15 USB
  • Sat, 23 Feb 2019 07:38:34 +0000: 13HN318>APWW10,,TCPIP*,qAC,EIFEL-CB:@083834h5151.18N/01424.43Ey11m CH 15 USB
  • Sat, 23 Feb 2019 07:08:34 +0000: 13HN318>APWW10,,TCPIP*,qAC,EIFEL-CB:@080834h5151.18N/01424.43Ey11m CH 15 USB
  • Sat, 23 Feb 2019 06:38:34 +0000: 13HN318>APWW10,,TCPIP*,qAC,EIFEL-CB:@073834h5151.18N/01424.43Ey11m CH 15 USB
  • Sat, 23 Feb 2019 06:08:34 +0000: 13HN318>APWW10,,TCPIP*,qAC,EIFEL-CB:@070834h5151.18N/01424.43Ey11m CH 15 USB
  • Sat, 23 Feb 2019 05:38:34 +0000: 13HN318>APWW10,,TCPIP*,qAC,EIFEL-CB:@063834h5151.18N/01424.43Ey11m CH 15 USB
  • Sat, 23 Feb 2019 05:08:34 +0000: 13HN318>APWW10,,TCPIP*,qAC,EIFEL-CB:@060834h5151.18N/01424.43Ey11m CH 15 USB
  • Sat, 23 Feb 2019 04:38:34 +0000: 13HN318>APWW10,,TCPIP*,qAC,EIFEL-CB:@053834h5151.18N/01424.43Ey11m CH 15 USB
  • Sat, 23 Feb 2019 04:08:34 +0000: 13HN318>APWW10,,TCPIP*,qAC,EIFEL-CB:@050834h5151.18N/01424.43Ey11m CH 15 USB
  • Sat, 23 Feb 2019 03:38:34 +0000: 13HN318>APWW10,,TCPIP*,qAC,EIFEL-CB:@043834h5151.18N/01424.43Ey11m CH 15 USB
  • Sat, 23 Feb 2019 03:08:34 +0000: 13HN318>APWW10,,TCPIP*,qAC,EIFEL-CB:@040834h5151.18N/01424.43Ey11m CH 15 USB
  • Sat, 23 Feb 2019 02:38:34 +0000: 13HN318>APWW10,,TCPIP*,qAC,EIFEL-CB:@033834h5151.18N/01424.43Ey11m CH 15 USB
  • Sat, 23 Feb 2019 02:08:34 +0000: 13HN318>APWW10,,TCPIP*,qAC,EIFEL-CB:@030834h5151.18N/01424.43Ey11m CH 15 USB
  • Sat, 23 Feb 2019 01:38:34 +0000: 13HN318>APWW10,,TCPIP*,qAC,EIFEL-CB:@023834h5151.18N/01424.43Ey11m CH 15 USB
  • Sat, 23 Feb 2019 01:07:52 +0000: 13HN318>APWW10,,TCPIP*,qAC,EIFEL-CB:@020752h5151.18N/01424.43Ey11m CH 15 USB
  • Sat, 23 Feb 2019 00:37:52 +0000: 13HN318>APWW10,,TCPIP*,qAC,EIFEL-CB:@013752h5151.18N/01424.43Ey11m CH 15 USB
  • Fri, 22 Feb 2019 22:45:25 +0000: 13HN318>APWW10,,TCPIP*,qAC,EIFEL-CB:@234525h5151.18N/01424.43Ey11m CH 15 USB
  • Fri, 22 Feb 2019 22:15:25 +0000: 13HN318>APWW10,,TCPIP*,qAC,EIFEL-CB:@231525h5151.18N/01424.43Ey11m CH 15 USB
  • Fri, 22 Feb 2019 21:51:35 +0000: 13HN318>APWW10,,TCPIP*,qAC,EIFEL-CB:@225135h5151.18N/01424.43Ey11m CH 15 USB
  • Fri, 22 Feb 2019 21:21:35 +0000: 13HN318>APWW10,,TCPIP*,qAC,EIFEL-CB:@222135h5151.18N/01424.43Ey11m CH 15 USB
  • Fri, 22 Feb 2019 20:51:35 +0000: 13HN318>APWW10,,TCPIP*,qAC,EIFEL-CB:@215135h5151.18N/01424.43Ey11m CH 15 USB
  • Fri, 22 Feb 2019 20:21:35 +0000: 13HN318>APWW10,,TCPIP*,qAC,EIFEL-CB:@212135h5151.18N/01424.43Ey11m CH 15 USB
  • Fri, 22 Feb 2019 19:51:35 +0000: 13HN318>APWW10,,TCPIP*,qAC,EIFEL-CB:@205135h5151.18N/01424.43Ey11m CH 15 USB
  • Fri, 22 Feb 2019 19:21:35 +0000: 13HN318>APWW10,,TCPIP*,qAC,EIFEL-CB:@202135h5151.18N/01424.43Ey11m CH 15 USB
  • Fri, 22 Feb 2019 18:51:35 +0000: 13HN318>APWW10,,TCPIP*,qAC,EIFEL-CB:@195135h5151.18N/01424.43Ey11m CH 15 USB
  • Fri, 22 Feb 2019 18:21:35 +0000: 13HN318>APWW10,,TCPIP*,qAC,EIFEL-CB:@192135h5151.18N/01424.43Ey11m CH 15 USB
  • Fri, 22 Feb 2019 17:51:35 +0000: 13HN318>APWW10,,TCPIP*,qAC,EIFEL-CB:@185135h5151.18N/01424.43Ey11m CH 15 USB
  • Fri, 22 Feb 2019 17:21:35 +0000: 13HN318>APWW10,,TCPIP*,qAC,EIFEL-CB:@182135h5151.18N/01424.43Ey11m CH 15 USB
  • Fri, 22 Feb 2019 16:51:35 +0000: 13HN318>APWW10,,TCPIP*,qAC,EIFEL-CB:@175135h5151.18N/01424.43Ey11m CH 15 USB
  • Fri, 22 Feb 2019 16:21:35 +0000: 13HN318>APWW10,,TCPIP*,qAC,EIFEL-CB:@172135h5151.18N/01424.43Ey11m CH 15 USB
  • Fri, 22 Feb 2019 15:51:35 +0000: 13HN318>APWW10,,TCPIP*,qAC,EIFEL-CB:@165135h5151.18N/01424.43Ey11m CH 15 USB
  • Fri, 22 Feb 2019 15:21:35 +0000: 13HN318>APWW10,,TCPIP*,qAC,EIFEL-CB:@162135h5151.18N/01424.43Ey11m CH 15 USB
  • Fri, 22 Feb 2019 14:51:35 +0000: 13HN318>APWW10,,TCPIP*,qAC,EIFEL-CB:@155135h5151.18N/01424.43Ey11m CH 15 USB
  • Fri, 22 Feb 2019 14:21:35 +0000: 13HN318>APWW10,,TCPIP*,qAC,EIFEL-CB:@152135h5151.18N/01424.43Ey11m CH 15 USB
  • Fri, 22 Feb 2019 13:51:35 +0000: 13HN318>APWW10,,TCPIP*,qAC,EIFEL-CB:@145135h5151.18N/01424.43Ey11m CH 15 USB
  • Fri, 22 Feb 2019 13:21:35 +0000: 13HN318>APWW10,,TCPIP*,qAC,EIFEL-CB:@142135h5151.18N/01424.43Ey11m CH 15 USB
  • Fri, 22 Feb 2019 12:51:35 +0000: 13HN318>APWW10,,TCPIP*,qAC,EIFEL-CB:@135135h5151.18N/01424.43Ey11m CH 15 USB
  • Fri, 22 Feb 2019 12:21:35 +0000: 13HN318>APWW10,,TCPIP*,qAC,EIFEL-CB:@132135h5151.18N/01424.43Ey11m CH 15 USB
  • Fri, 22 Feb 2019 11:51:35 +0000: 13HN318>APWW10,,TCPIP*,qAC,EIFEL-CB:@125135h5151.18N/01424.43Ey11m CH 15 USB
  • Fri, 22 Feb 2019 11:09:31 +0000: 13HN318>APWW10,,TCPIP*,qAC,EIFEL-CB:@120931h5151.18N/01424.43Ey11m CH 15 USB
  • Fri, 22 Feb 2019 10:09:31 +0000: 13HN318>APWW10,,TCPIP*,qAC,EIFEL-CB:@110931h5151.18N/01424.43Ey11m CH 15 USB
  • Fri, 22 Feb 2019 09:39:31 +0000: 13HN318>APWW10,,TCPIP*,qAC,EIFEL-CB:@103931h5151.18N/01424.43Ey11m CH 15 USB
  • Fri, 22 Feb 2019 09:09:31 +0000: 13HN318>APWW10,,TCPIP*,qAC,EIFEL-CB:@100931h5151.18N/01424.43Ey11m CH 15 USB
  • Fri, 22 Feb 2019 08:39:31 +0000: 13HN318>APWW10,,TCPIP*,qAC,EIFEL-CB:@093931h5151.18N/01424.43Ey11m CH 15 USB
  • Fri, 22 Feb 2019 08:09:31 +0000: 13HN318>APWW10,,TCPIP*,qAC,EIFEL-CB:@090931h5151.18N/01424.43Ey11m CH 15 USB
  • Fri, 22 Feb 2019 07:39:31 +0000: 13HN318>APWW10,,TCPIP*,qAC,EIFEL-CB:@083931h5151.18N/01424.43Ey11m CH 15 USB
  • Fri, 22 Feb 2019 07:09:31 +0000: 13HN318>APWW10,,TCPIP*,qAC,EIFEL-CB:@080931h5151.18N/01424.43Ey11m CH 15 USB
  • Fri, 22 Feb 2019 06:39:31 +0000: 13HN318>APWW10,,TCPIP*,qAC,EIFEL-CB:@073931h5151.18N/01424.43Ey11m CH 15 USB
  • Fri, 22 Feb 2019 06:09:31 +0000: 13HN318>APWW10,,TCPIP*,qAC,EIFEL-CB:@070931h5151.18N/01424.43Ey11m CH 15 USB
  • Fri, 22 Feb 2019 05:39:31 +0000: 13HN318>APWW10,,TCPIP*,qAC,EIFEL-CB:@063931h5151.18N/01424.43Ey11m CH 15 USB
  • Fri, 22 Feb 2019 05:09:31 +0000: 13HN318>APWW10,,TCPIP*,qAC,EIFEL-CB:@060931h5151.18N/01424.43Ey11m CH 15 USB
  • Fri, 22 Feb 2019 04:39:31 +0000: 13HN318>APWW10,,TCPIP*,qAC,EIFEL-CB:@053931h5151.18N/01424.43Ey11m CH 15 USB
  • Fri, 22 Feb 2019 04:09:31 +0000: 13HN318>APWW10,,TCPIP*,qAC,EIFEL-CB:@050931h5151.18N/01424.43Ey11m CH 15 USB
  • Fri, 22 Feb 2019 03:39:31 +0000: 13HN318>APWW10,,TCPIP*,qAC,EIFEL-CB:@043931h5151.18N/01424.43Ey11m CH 15 USB
  • Fri, 22 Feb 2019 03:09:31 +0000: 13HN318>APWW10,,TCPIP*,qAC,EIFEL-CB:@040931h5151.18N/01424.43Ey11m CH 15 USB
  • Fri, 22 Feb 2019 02:39:31 +0000: 13HN318>APWW10,,TCPIP*,qAC,EIFEL-CB:@033931h5151.18N/01424.43Ey11m CH 15 USB
  • Fri, 22 Feb 2019 02:09:31 +0000: 13HN318>APWW10,,TCPIP*,qAC,EIFEL-CB:@030931h5151.18N/01424.43Ey11m CH 15 USB
  • Fri, 22 Feb 2019 01:39:31 +0000: 13HN318>APWW10,,TCPIP*,qAC,EIFEL-CB:@023931h5151.18N/01424.43Ey11m CH 15 USB
  • Fri, 22 Feb 2019 01:20:59 +0000: 13HN318>APWW10,,TCPIP*,qAC,EIFEL-CB:@022059h5151.18N/01424.43Ey11m CH 15 USB
  • Fri, 22 Feb 2019 00:50:59 +0000: 13HN318>APWW10,,TCPIP*,qAC,EIFEL-CB:@015059h5151.18N/01424.43Ey11m CH 15 USB
  • Thu, 21 Feb 2019 22:53:45 +0000: 13HN318>APWW10,,TCPIP*,qAC,EIFEL-CB:@235345h5151.18N/01424.43Ey11m CH 15 USB
  • Thu, 21 Feb 2019 21:45:25 +0000: 13HN318>APWW10,,TCPIP*,qAC,EIFEL-CB:@224525h5151.18N/01424.43Ey11m CH 15 USB
  • Thu, 21 Feb 2019 21:15:25 +0000: 13HN318>APWW10,,TCPIP*,qAC,EIFEL-CB:@221525h5151.18N/01424.43Ey11m CH 15 USB
  • Thu, 21 Feb 2019 20:45:25 +0000: 13HN318>APWW10,,TCPIP*,qAC,EIFEL-CB:@214525h5151.18N/01424.43Ey11m CH 15 USB